sensor_id;sensor_type;location;lat;lon;timestamp;temperature;humidity
14687;DHT22;7431;49.440;11.084;2023-03-12T06:27:40;1.00;99.90
14687;DHT22;7431;49.440;11.084;2023-03-12T06:30:07;1.00;99.90
14687;DHT22;7431;49.440;11.084;2023-03-12T06:32:33;1.40;99.90
14687;DHT22;7431;49.440;11.084;2023-03-12T06:34:59;1.70;99.90
14687;DHT22;7431;49.440;11.084;2023-03-12T06:37:25;1.90;99.90
14687;DHT22;7431;49.440;11.084;2023-03-12T06:39:51;1.80;99.90
14687;DHT22;7431;49.440;11.084;2023-03-12T06:42:17;1.60;99.90
14687;DHT22;7431;49.440;11.084;2023-03-12T06:44:45;1.50;99.90
14687;DHT22;7431;49.440;11.084;2023-03-12T06:47:10;1.60;99.90
14687;DHT22;7431;49.440;11.084;2023-03-12T06:49:36;1.80;99.90
14687;DHT22;7431;49.440;11.084;2023-03-12T06:52:02;2.30;99.90
14687;DHT22;7431;49.440;11.084;2023-03-12T06:54:28;3.00;99.90
14687;DHT22;7431;49.440;11.084;2023-03-12T06:56:54;3.70;99.90
14687;DHT22;7431;49.440;11.084;2023-03-12T06:59:19;4.50;99.90
14687;DHT22;7431;49.440;11.084;2023-03-12T07:01:46;4.60;99.90
14687;DHT22;7431;49.440;11.084;2023-03-12T07:04:12;4.80;99.90
14687;DHT22;7431;49.440;11.084;2023-03-12T07:06:38;4.80;99.90
14687;DHT22;7431;49.440;11.084;2023-03-12T07:09:04;4.80;99.90
14687;DHT22;7431;49.440;11.084;2023-03-12T07:11:32;5.40;99.90
14687;DHT22;7431;49.440;11.084;2023-03-12T07:13:57;6.40;99.90
14687;DHT22;7431;49.440;11.084;2023-03-12T07:16:23;7.10;99.90
14687;DHT22;7431;49.440;11.084;2023-03-12T07:18:48;6.80;99.90
14687;DHT22;7431;49.440;11.084;2023-03-12T07:21:15;5.40;99.90
14687;DHT22;7431;49.440;11.084;2023-03-12T07:23:47;5.30;99.90
14687;DHT22;7431;49.440;11.084;2023-03-12T07:31:05;4.10;99.90
14687;DHT22;7431;49.440;11.084;2023-03-12T07:38:25;4.30;99.90
14687;DHT22;7431;49.440;11.084;2023-03-12T07:45:44;4.60;99.90
14687;DHT22;7431;49.440;11.084;2023-03-12T07:48:10;4.70;99.90
14687;DHT22;7431;49.440;11.084;2023-03-12T07:50:35;4.90;99.90
14687;DHT22;7431;49.440;11.084;2023-03-12T08:10:08;4.30;99.90
14687;DHT22;7431;49.440;11.084;2023-03-12T08:12:34;4.80;99.90
14687;DHT22;7431;49.440;11.084;2023-03-12T08:15:05;5.50;99.90
14687;DHT22;7431;49.440;11.084;2023-03-12T08:17:30;6.50;99.90
14687;DHT22;7431;49.440;11.084;2023-03-12T08:19:56;7.00;99.90
14687;DHT22;7431;49.440;11.084;2023-03-12T08:22:22;7.10;99.90
14687;DHT22;7431;49.440;11.084;2023-03-12T08:24:47;6.60;99.90
14687;DHT22;7431;49.440;11.084;2023-03-12T08:27:13;6.40;99.90
14687;DHT22;7431;49.440;11.084;2023-03-12T08:29:39;6.30;99.90
14687;DHT22;7431;49.440;11.084;2023-03-12T08:32:05;6.20;99.90
14687;DHT22;7431;49.440;11.084;2023-03-12T08:34:32;6.20;99.90
14687;DHT22;7431;49.440;11.084;2023-03-12T08:36:58;6.20;99.90
14687;DHT22;7431;49.440;11.084;2023-03-12T08:39:23;6.30;99.90
14687;DHT22;7431;49.440;11.084;2023-03-12T08:41:49;6.70;99.90
14687;DHT22;7431;49.440;11.084;2023-03-12T08:44:20;6.80;99.90
14687;DHT22;7431;49.440;11.084;2023-03-12T08:49:12;6.50;99.90
14687;DHT22;7431;49.440;11.084;2023-03-12T08:51:37;6.40;99.90
14687;DHT22;7431;49.440;11.084;2023-03-12T08:54:03;6.30;99.90
14687;DHT22;7431;49.440;11.084;2023-03-12T08:58:57;6.20;99.90
14687;DHT22;7431;49.440;11.084;2023-03-12T09:01:23;6.00;99.90
14687;DHT22;7431;49.440;11.084;2023-03-12T09:03:49;5.90;99.90
14687;DHT22;7431;49.440;11.084;2023-03-12T09:06:16;6.10;99.90
14687;DHT22;7431;49.440;11.084;2023-03-12T09:08:44;6.20;99.90
14687;DHT22;7431;49.440;11.084;2023-03-12T09:11:10;6.40;99.90
14687;DHT22;7431;49.440;11.084;2023-03-12T09:13:37;6.60;99.90
14687;DHT22;7431;49.440;11.084;2023-03-12T09:16:03;6.90;99.90
14687;DHT22;7431;49.440;11.084;2023-03-12T09:18:30;7.00;99.90
14687;DHT22;7431;49.440;11.084;2023-03-12T09:20:56;7.10;99.90
14687;DHT22;7431;49.440;11.084;2023-03-12T09:23:22;7.50;99.90
14687;DHT22;7431;49.440;11.084;2023-03-12T09:25:48;8.10;99.90
14687;DHT22;7431;49.440;11.084;2023-03-12T09:28:14;8.80;99.90
14687;DHT22;7431;49.440;11.084;2023-03-12T09:30:40;9.30;99.90
14687;DHT22;7431;49.440;11.084;2023-03-12T09:33:06;10.30;99.90
14687;DHT22;7431;49.440;11.084;2023-03-12T09:35:32;10.50;99.90
14687;DHT22;7431;49.440;11.084;2023-03-12T09:37:58;10.70;99.90
14687;DHT22;7431;49.440;11.084;2023-03-12T09:53:08;7.70;99.90
14687;DHT22;7431;49.440;11.084;2023-03-12T09:55:38;7.80;99.90
14687;DHT22;7431;49.440;11.084;2023-03-12T09:58:08;7.50;99.90
14687;DHT22;7431;49.440;11.084;2023-03-12T10:00:35;7.10;99.90
14687;DHT22;7431;49.440;11.084;2023-03-12T10:06:13;7.10;99.90
14687;DHT22;7431;49.440;11.084;2023-03-12T10:14:34;7.60;99.90
14687;DHT22;7431;49.440;11.084;2023-03-12T10:17:09;7.70;99.90
14687;DHT22;7431;49.440;11.084;2023-03-12T10:19:54;8.00;99.90
14687;DHT22;7431;49.440;11.084;2023-03-12T10:25:29;7.90;99.90
14687;DHT22;7431;49.440;11.084;2023-03-12T10:27:57;7.90;99.90
14687;DHT22;7431;49.440;11.084;2023-03-12T10:30:26;7.80;99.90
14687;DHT22;7431;49.440;11.084;2023-03-12T10:32:57;7.30;99.90
14687;DHT22;7431;49.440;11.084;2023-03-12T10:35:25;7.40;99.90
14687;DHT22;7431;49.440;11.084;2023-03-12T10:37:57;7.60;99.90
14687;DHT22;7431;49.440;11.084;2023-03-12T10:40:25;7.90;99.90
14687;DHT22;7431;49.440;11.084;2023-03-12T10:42:51;7.90;99.90
14687;DHT22;7431;49.440;11.084;2023-03-12T10:47:56;8.60;99.90
14687;DHT22;7431;49.440;11.084;2023-03-12T10:50:32;8.90;99.90
14687;DHT22;7431;49.440;11.084;2023-03-12T10:58:43;8.10;99.90
14687;DHT22;7431;49.440;11.084;2023-03-12T11:01:29;8.20;99.90
14687;DHT22;7431;49.440;11.084;2023-03-12T11:04:18;8.30;99.90
14687;DHT22;7431;49.440;11.084;2023-03-12T11:07:03;8.30;99.90
14687;DHT22;7431;49.440;11.084;2023-03-12T11:09:29;8.30;99.90
14687;DHT22;7431;49.440;11.084;2023-03-12T11:11:55;8.40;99.90
14687;DHT22;7431;49.440;11.084;2023-03-12T11:14:23;8.50;99.90
14687;DHT22;7431;49.440;11.084;2023-03-12T11:16:50;8.50;99.90
14687;DHT22;7431;49.440;11.084;2023-03-12T11:19:33;8.40;99.90
14687;DHT22;7431;49.440;11.084;2023-03-12T11:22:02;8.20;99.90
14687;DHT22;7431;49.440;11.084;2023-03-12T11:24:28;8.30;99.90
14687;DHT22;7431;49.440;11.084;2023-03-12T11:27:25;8.40;99.90
14687;DHT22;7431;49.440;11.084;2023-03-12T11:29:53;8.40;99.90
14687;DHT22;7431;49.440;11.084;2023-03-12T11:32:26;8.30;99.90
14687;DHT22;7431;49.440;11.084;2023-03-12T11:34:55;8.20;99.90
14687;DHT22;7431;49.440;11.084;2023-03-12T11:37:43;8.20;99.90
14687;DHT22;7431;49.440;11.084;2023-03-12T11:56:55;7.00;99.90
14687;DHT22;7431;49.440;11.084;2023-03-12T12:02:54;6.80;99.90
14687;DHT22;7431;49.440;11.084;2023-03-12T12:10:29;6.40;99.90
14687;DHT22;7431;49.440;11.084;2023-03-12T12:13:05;6.30;99.90
14687;DHT22;7431;49.440;11.084;2023-03-12T12:15:58;6.50;99.90
14687;DHT22;7431;49.440;11.084;2023-03-12T12:18:50;6.80;99.90
14687;DHT22;7431;49.440;11.084;2023-03-12T12:27:02;7.00;99.90
14687;DHT22;7431;49.440;11.084;2023-03-12T12:30:00;7.10;99.90
14687;DHT22;7431;49.440;11.084;2023-03-12T12:32:31;7.00;99.90
14687;DHT22;7431;49.440;11.084;2023-03-12T12:37:47;7.10;99.90
14687;DHT22;7431;49.440;11.084;2023-03-12T12:40:22;7.20;99.90
14687;DHT22;7431;49.440;11.084;2023-03-12T12:43:20;7.00;99.90
14687;DHT22;7431;49.440;11.084;2023-03-12T12:45:49;7.10;99.90
14687;DHT22;7431;49.440;11.084;2023-03-12T12:48:40;7.20;99.90
14687;DHT22;7431;49.440;11.084;2023-03-12T12:51:08;7.30;99.90
14687;DHT22;7431;49.440;11.084;2023-03-12T12:56:37;7.50;99.90
14687;DHT22;7431;49.440;11.084;2023-03-12T13:01:56;7.70;99.90
14687;DHT22;7431;49.440;11.084;2023-03-12T13:04:36;7.80;99.90
14687;DHT22;7431;49.440;11.084;2023-03-12T13:09:42;7.90;99.90
14687;DHT22;7431;49.440;11.084;2023-03-12T13:14:45;7.80;99.90
14687;DHT22;7431;49.440;11.084;2023-03-12T13:19:49;7.70;99.90
14687;DHT22;7431;49.440;11.084;2023-03-12T13:22:56;7.70;99.90
14687;DHT22;7431;49.440;11.084;2023-03-12T13:25:50;7.70;99.90
14687;DHT22;7431;49.440;11.084;2023-03-12T13:28:29;7.60;99.90
14687;DHT22;7431;49.440;11.084;2023-03-12T13:33:56;7.90;99.90
14687;DHT22;7431;49.440;11.084;2023-03-12T13:36:27;8.40;99.90
14687;DHT22;7431;49.440;11.084;2023-03-12T13:38:58;8.00;99.90
14687;DHT22;7431;49.440;11.084;2023-03-12T13:43:59;8.10;99.90
14687;DHT22;7431;49.440;11.084;2023-03-12T13:46:34;8.00;99.90
14687;DHT22;7431;49.440;11.084;2023-03-12T13:49:04;7.90;99.90
14687;DHT22;7431;49.440;11.084;2023-03-12T13:51:45;7.80;99.90
14687;DHT22;7431;49.440;11.084;2023-03-12T13:54:16;7.80;99.90
14687;DHT22;7431;49.440;11.084;2023-03-12T13:56:52;7.80;99.90
14687;DHT22;7431;49.440;11.084;2023-03-12T13:59:19;7.70;99.90
14687;DHT22;7431;49.440;11.084;2023-03-12T14:01:48;7.60;99.90
14687;DHT22;7431;49.440;11.084;2023-03-12T14:04:22;7.70;99.90
14687;DHT22;7431;49.440;11.084;2023-03-12T14:09:40;8.00;99.90
14687;DHT22;7431;49.440;11.084;2023-03-12T14:12:28;8.10;99.90
14687;DHT22;7431;49.440;11.084;2023-03-12T14:15:08;8.10;99.90
14687;DHT22;7431;49.440;11.084;2023-03-12T14:17:38;8.20;99.90
14687;DHT22;7431;49.440;11.084;2023-03-12T14:20:17;8.20;99.90
14687;DHT22;7431;49.440;11.084;2023-03-12T14:22:49;8.10;99.90
14687;DHT22;7431;49.440;11.084;2023-03-12T14:25:31;8.50;99.90
14687;DHT22;7431;49.440;11.084;2023-03-12T14:27:59;8.50;99.90
14687;DHT22;7431;49.440;11.084;2023-03-12T14:30:40;8.60;99.90
14687;DHT22;7431;49.440;11.084;2023-03-12T14:33:12;8.60;99.90
14687;DHT22;7431;49.440;11.084;2023-03-12T14:35:50;8.80;99.90
14687;DHT22;7431;49.440;11.084;2023-03-12T14:38:29;9.00;99.90
14687;DHT22;7431;49.440;11.084;2023-03-12T14:41:08;9.30;99.90
14687;DHT22;7431;49.440;11.084;2023-03-12T14:43:40;9.60;99.90
14687;DHT22;7431;49.440;11.084;2023-03-12T14:46:15;9.80;99.90
14687;DHT22;7431;49.440;11.084;2023-03-12T14:48:41;10.10;99.90
14687;DHT22;7431;49.440;11.084;2023-03-12T14:51:19;9.90;99.90
14687;DHT22;7431;49.440;11.084;2023-03-12T14:53:45;9.90;99.90
14687;DHT22;7431;49.440;11.084;2023-03-12T14:56:12;9.90;99.90
14687;DHT22;7431;49.440;11.084;2023-03-12T14:58:46;10.20;99.90
14687;DHT22;7431;49.440;11.084;2023-03-12T15:01:16;10.50;99.90
14687;DHT22;7431;49.440;11.084;2023-03-12T15:03:45;10.80;99.90
14687;DHT22;7431;49.440;11.084;2023-03-12T15:06:56;10.90;99.90
14687;DHT22;7431;49.440;11.084;2023-03-12T15:09:27;10.90;99.90
14687;DHT22;7431;49.440;11.084;2023-03-12T15:12:06;10.60;99.90
14687;DHT22;7431;49.440;11.084;2023-03-12T15:14:37;10.40;99.90
14687;DHT22;7431;49.440;11.084;2023-03-12T15:17:04;10.20;99.90
14687;DHT22;7431;49.440;11.084;2023-03-12T15:19:34;10.20;99.90
14687;DHT22;7431;49.440;11.084;2023-03-12T15:22:02;9.80;99.90
14687;DHT22;7431;49.440;11.084;2023-03-12T15:24:32;9.60;99.90
14687;DHT22;7431;49.440;11.084;2023-03-12T15:29:53;9.30;99.90
14687;DHT22;7431;49.440;11.084;2023-03-12T15:32:20;9.20;99.90
14687;DHT22;7431;49.440;11.084;2023-03-12T15:34:47;9.20;99.90
14687;DHT22;7431;49.440;11.084;2023-03-12T15:37:31;9.20;99.90
14687;DHT22;7431;49.440;11.084;2023-03-12T15:40:15;9.20;99.90
14687;DHT22;7431;49.440;11.084;2023-03-12T15:42:45;9.20;99.90
14687;DHT22;7431;49.440;11.084;2023-03-12T15:45:26;9.20;99.90
14687;DHT22;7431;49.440;11.084;2023-03-12T15:47:55;9.20;99.90
14687;DHT22;7431;49.440;11.084;2023-03-12T15:53:23;9.40;99.90
14687;DHT22;7431;49.440;11.084;2023-03-12T15:58:39;9.60;99.90
14687;DHT22;7431;49.440;11.084;2023-03-12T16:03:37;9.60;99.90
14687;DHT22;7431;49.440;11.084;2023-03-12T16:06:04;9.60;99.90
14687;DHT22;7431;49.440;11.084;2023-03-12T16:08:40;9.60;99.90
14687;DHT22;7431;49.440;11.084;2023-03-12T16:11:17;9.60;99.90
14687;DHT22;7431;49.440;11.084;2023-03-12T16:13:45;9.70;99.90
14687;DHT22;7431;49.440;11.084;2023-03-12T16:16:12;9.60;99.90
14687;DHT22;7431;49.440;11.084;2023-03-12T16:18:38;9.60;99.90
14687;DHT22;7431;49.440;11.084;2023-03-12T16:21:04;9.50;99.90
14687;DHT22;7431;49.440;11.084;2023-03-12T16:23:30;9.40;99.90
14687;DHT22;7431;49.440;11.084;2023-03-12T16:26:02;9.30;99.90
14687;DHT22;7431;49.440;11.084;2023-03-12T16:28:28;9.20;99.90
14687;DHT22;7431;49.440;11.084;2023-03-12T16:30:54;9.20;99.90
14687;DHT22;7431;49.440;11.084;2023-03-12T16:33:22;9.10;99.90
14687;DHT22;7431;49.440;11.084;2023-03-12T16:35:48;9.00;99.90
14687;DHT22;7431;49.440;11.084;2023-03-12T16:38:14;9.00;99.90
14687;DHT22;7431;49.440;11.084;2023-03-12T16:40:43;9.10;99.90
14687;DHT22;7431;49.440;11.084;2023-03-12T16:43:28;8.90;99.90
14687;DHT22;7431;49.440;11.084;2023-03-12T16:45:54;8.90;99.90
14687;DHT22;7431;49.440;11.084;2023-03-12T16:48:22;8.80;99.90
14687;DHT22;7431;49.440;11.084;2023-03-12T16:50:53;8.70;99.90
14687;DHT22;7431;49.440;11.084;2023-03-12T16:53:20;8.70;99.90
14687;DHT22;7431;49.440;11.084;2023-03-12T16:55:58;8.70;99.90
14687;DHT22;7431;49.440;11.084;2023-03-12T16:58:25;8.60;99.90
14687;DHT22;7431;49.440;11.084;2023-03-12T17:00:52;8.60;99.90
14687;DHT22;7431;49.440;11.084;2023-03-12T17:03:33;8.60;99.90
14687;DHT22;7431;49.440;11.084;2023-03-12T17:06:00;8.60;99.90
14687;DHT22;7431;49.440;11.084;2023-03-12T17:08:25;8.60;99.90
14687;DHT22;7431;49.440;11.084;2023-03-12T17:10:52;8.50;99.90
14687;DHT22;7431;49.440;11.084;2023-03-12T17:13:28;8.50;99.90
14687;DHT22;7431;49.440;11.084;2023-03-12T17:15:53;8.40;99.90
14687;DHT22;7431;49.440;11.084;2023-03-12T17:18:20;8.30;99.90
14687;DHT22;7431;49.440;11.084;2023-03-12T17:20:47;8.20;99.90
14687;DHT22;7431;49.440;11.084;2023-03-12T17:23:13;8.20;99.90
14687;DHT22;7431;49.440;11.084;2023-03-12T17:25:40;8.30;99.90
14687;DHT22;7431;49.440;11.084;2023-03-12T17:28:07;8.30;99.90
14687;DHT22;7431;49.440;11.084;2023-03-12T17:30:34;8.30;99.90
14687;DHT22;7431;49.440;11.084;2023-03-12T17:33:05;8.30;99.90
14687;DHT22;7431;49.440;11.084;2023-03-12T17:35:32;9.60;99.90
14687;DHT22;7431;49.440;11.084;2023-03-12T17:37:58;8.60;99.90
14687;DHT22;7431;49.440;11.084;2023-03-12T17:40:23;8.20;99.90
14687;DHT22;7431;49.440;11.084;2023-03-12T17:42:49;8.20;99.90
14687;DHT22;7431;49.440;11.084;2023-03-12T17:45:15;8.20;99.90
14687;DHT22;7431;49.440;11.084;2023-03-12T17:47:41;8.20;99.90
14687;DHT22;7431;49.440;11.084;2023-03-12T17:50:07;8.20;99.90
14687;DHT22;7431;49.440;11.084;2023-03-12T17:52:33;8.10;99.90
14687;DHT22;7431;49.440;11.084;2023-03-12T17:54:58;8.10;99.90
14687;DHT22;7431;49.440;11.084;2023-03-12T17:57:25;8.10;99.90
14687;DHT22;7431;49.440;11.084;2023-03-12T17:59:51;8.20;99.90
14687;DHT22;7431;49.440;11.084;2023-03-12T18:02:17;8.20;99.90
14687;DHT22;7431;49.440;11.084;2023-03-12T18:04:49;8.20;99.90
14687;DHT22;7431;49.440;11.084;2023-03-12T18:07:15;8.10;99.90
14687;DHT22;7431;49.440;11.084;2023-03-12T18:09:41;8.10;99.90
14687;DHT22;7431;49.440;11.084;2023-03-12T18:12:07;8.10;99.90
14687;DHT22;7431;49.440;11.084;2023-03-12T18:14:32;8.10;99.90
14687;DHT22;7431;49.440;11.084;2023-03-12T18:16:58;8.10;99.90
14687;DHT22;7431;49.440;11.084;2023-03-12T18:19:24;8.10;99.90
14687;DHT22;7431;49.440;11.084;2023-03-12T18:21:52;8.10;99.90
14687;DHT22;7431;49.440;11.084;2023-03-12T18:24:17;8.10;99.90
14687;DHT22;7431;49.440;11.084;2023-03-12T18:26:43;8.10;99.90
14687;DHT22;7431;49.440;11.084;2023-03-12T18:29:10;8.10;99.90
14687;DHT22;7431;49.440;11.084;2023-03-12T18:31:36;8.10;99.90
14687;DHT22;7431;49.440;11.084;2023-03-12T18:34:03;8.10;99.90
14687;DHT22;7431;49.440;11.084;2023-03-12T18:36:29;8.10;99.90
14687;DHT22;7431;49.440;11.084;2023-03-12T18:38:54;8.10;99.90
14687;DHT22;7431;49.440;11.084;2023-03-12T18:41:20;8.10;99.90
14687;DHT22;7431;49.440;11.084;2023-03-12T18:43:46;8.10;99.90
14687;DHT22;7431;49.440;11.084;2023-03-12T18:46:12;8.10;99.90
14687;DHT22;7431;49.440;11.084;2023-03-12T18:48:38;8.10;99.90
14687;DHT22;7431;49.440;11.084;2023-03-12T18:51:03;8.10;99.90
14687;DHT22;7431;49.440;11.084;2023-03-12T18:53:29;8.10;99.90
14687;DHT22;7431;49.440;11.084;2023-03-12T18:55:58;8.10;99.90
14687;DHT22;7431;49.440;11.084;2023-03-12T18:58:25;8.10;99.90
14687;DHT22;7431;49.440;11.084;2023-03-12T19:00:55;8.10;99.90
14687;DHT22;7431;49.440;11.084;2023-03-12T19:03:22;8.10;99.90
14687;DHT22;7431;49.440;11.084;2023-03-12T19:05:48;8.10;99.90
14687;DHT22;7431;49.440;11.084;2023-03-12T19:08:14;8.00;99.90
14687;DHT22;7431;49.440;11.084;2023-03-12T19:10:41;8.20;99.90
14687;DHT22;7431;49.440;11.084;2023-03-12T19:13:08;8.10;99.90
14687;DHT22;7431;49.440;11.084;2023-03-12T19:15:35;8.10;99.90
14687;DHT22;7431;49.440;11.084;2023-03-12T19:18:01;8.10;99.90
14687;DHT22;7431;49.440;11.084;2023-03-12T19:20:27;8.10;99.90
14687;DHT22;7431;49.440;11.084;2023-03-12T19:22:53;8.10;99.90
14687;DHT22;7431;49.440;11.084;2023-03-12T19:25:19;8.10;99.90
14687;DHT22;7431;49.440;11.084;2023-03-12T19:27:44;8.10;99.90
14687;DHT22;7431;49.440;11.084;2023-03-12T19:30:11;8.10;99.90
14687;DHT22;7431;49.440;11.084;2023-03-12T19:32:38;8.10;99.90
14687;DHT22;7431;49.440;11.084;2023-03-12T19:35:03;8.10;99.90
14687;DHT22;7431;49.440;11.084;2023-03-12T19:37:29;8.10;99.90
14687;DHT22;7431;49.440;11.084;2023-03-12T19:39:55;8.10;99.90
14687;DHT22;7431;49.440;11.084;2023-03-12T19:42:20;8.10;99.90
14687;DHT22;7431;49.440;11.084;2023-03-12T19:44:46;8.10;99.90
14687;DHT22;7431;49.440;11.084;2023-03-12T19:47:13;8.10;99.90
14687;DHT22;7431;49.440;11.084;2023-03-12T19:49:41;8.10;99.90
14687;DHT22;7431;49.440;11.084;2023-03-12T19:52:06;8.10;99.90
14687;DHT22;7431;49.440;11.084;2023-03-12T19:54:32;8.10;99.90
14687;DHT22;7431;49.440;11.084;2023-03-12T19:56:58;8.10;99.90
14687;DHT22;7431;49.440;11.084;2023-03-12T19:59:23;8.10;99.90
14687;DHT22;7431;49.440;11.084;2023-03-12T20:01:49;8.10;99.90
14687;DHT22;7431;49.440;11.084;2023-03-12T20:04:15;8.00;99.90
14687;DHT22;7431;49.440;11.084;2023-03-12T20:06:40;8.00;99.90
14687;DHT22;7431;49.440;11.084;2023-03-12T20:09:06;7.90;99.90
14687;DHT22;7431;49.440;11.084;2023-03-12T20:11:32;7.90;99.90
14687;DHT22;7431;49.440;11.084;2023-03-12T20:14:00;7.90;99.90
14687;DHT22;7431;49.440;11.084;2023-03-12T20:16:26;7.90;99.90
14687;DHT22;7431;49.440;11.084;2023-03-12T20:18:51;7.90;99.90
14687;DHT22;7431;49.440;11.084;2023-03-12T20:21:17;7.90;99.90
14687;DHT22;7431;49.440;11.084;2023-03-12T20:23:42;7.90;99.90
14687;DHT22;7431;49.440;11.084;2023-03-12T20:26:08;7.90;99.90
14687;DHT22;7431;49.440;11.084;2023-03-12T20:28:34;8.00;99.90
14687;DHT22;7431;49.440;11.084;2023-03-12T20:31:11;8.40;99.90
14687;DHT22;7431;49.440;11.084;2023-03-12T20:33:37;8.00;99.90
14687;DHT22;7431;49.440;11.084;2023-03-12T20:36:05;7.90;99.90
14687;DHT22;7431;49.440;11.084;2023-03-12T20:38:30;8.10;99.90
14687;DHT22;7431;49.440;11.084;2023-03-12T20:40:56;8.10;99.90
14687;DHT22;7431;49.440;11.084;2023-03-12T20:43:21;8.10;99.90
14687;DHT22;7431;49.440;11.084;2023-03-12T20:45:48;8.10;99.90
14687;DHT22;7431;49.440;11.084;2023-03-12T20:48:14;8.10;99.90
14687;DHT22;7431;49.440;11.084;2023-03-12T20:50:39;8.10;99.90
14687;DHT22;7431;49.440;11.084;2023-03-12T20:53:06;8.10;99.90
14687;DHT22;7431;49.440;11.084;2023-03-12T20:55:31;8.10;99.90
14687;DHT22;7431;49.440;11.084;2023-03-12T20:57:58;8.20;99.90
14687;DHT22;7431;49.440;11.084;2023-03-12T21:00:23;8.10;99.90
14687;DHT22;7431;49.440;11.084;2023-03-12T21:02:49;8.10;99.90
14687;DHT22;7431;49.440;11.084;2023-03-12T21:05:15;8.20;99.90
14687;DHT22;7431;49.440;11.084;2023-03-12T21:07:40;8.20;99.90
14687;DHT22;7431;49.440;11.084;2023-03-12T21:10:07;8.20;99.90
14687;DHT22;7431;49.440;11.084;2023-03-12T21:12:32;8.20;99.90
14687;DHT22;7431;49.440;11.084;2023-03-12T21:14:58;8.20;99.90
14687;DHT22;7431;49.440;11.084;2023-03-12T21:17:35;8.20;99.90
14687;DHT22;7431;49.440;11.084;2023-03-12T21:20:07;8.20;99.90
14687;DHT22;7431;49.440;11.084;2023-03-12T21:22:36;8.20;99.90
14687;DHT22;7431;49.440;11.084;2023-03-12T21:25:02;8.20;99.90
14687;DHT22;7431;49.440;11.084;2023-03-12T21:27:28;8.20;99.90
14687;DHT22;7431;49.440;11.084;2023-03-12T21:29:54;8.20;99.90
14687;DHT22;7431;49.440;11.084;2023-03-12T21:32:20;8.20;99.90
14687;DHT22;7431;49.440;11.084;2023-03-12T21:34:46;8.20;99.90
14687;DHT22;7431;49.440;11.084;2023-03-12T21:37:12;8.20;99.90
14687;DHT22;7431;49.440;11.084;2023-03-12T21:39:37;8.20;99.90
14687;DHT22;7431;49.440;11.084;2023-03-12T21:42:03;8.10;99.90
14687;DHT22;7431;49.440;11.084;2023-03-12T21:44:28;8.10;99.90
14687;DHT22;7431;49.440;11.084;2023-03-12T21:46:54;8.10;99.90
14687;DHT22;7431;49.440;11.084;2023-03-12T21:49:19;8.10;99.90
14687;DHT22;7431;49.440;11.084;2023-03-12T21:51:45;8.10;99.90
14687;DHT22;7431;49.440;11.084;2023-03-12T21:54:11;8.10;99.90
14687;DHT22;7431;49.440;11.084;2023-03-12T21:56:37;8.10;99.90
14687;DHT22;7431;49.440;11.084;2023-03-12T21:59:03;8.00;99.90
14687;DHT22;7431;49.440;11.084;2023-03-12T22:01:28;8.00;99.90
14687;DHT22;7431;49.440;11.084;2023-03-12T22:03:54;8.00;99.90
14687;DHT22;7431;49.440;11.084;2023-03-12T22:06:20;8.00;99.90
14687;DHT22;7431;49.440;11.084;2023-03-12T22:08:46;8.00;99.90
14687;DHT22;7431;49.440;11.084;2023-03-12T22:11:17;8.00;99.90
14687;DHT22;7431;49.440;11.084;2023-03-12T22:13:42;8.00;99.90
14687;DHT22;7431;49.440;11.084;2023-03-12T22:16:10;8.10;99.90
14687;DHT22;7431;49.440;11.084;2023-03-12T22:18:38;7.90;99.90
14687;DHT22;7431;49.440;11.084;2023-03-12T22:21:11;8.00;99.90
14687;DHT22;7431;49.440;11.084;2023-03-12T22:23:37;8.70;99.90
14687;DHT22;7431;49.440;11.084;2023-03-12T22:26:04;8.00;99.90
14687;DHT22;7431;49.440;11.084;2023-03-12T22:28:30;8.00;99.90
14687;DHT22;7431;49.440;11.084;2023-03-12T22:31:01;8.00;99.90
14687;DHT22;7431;49.440;11.084;2023-03-12T22:33:28;8.00;99.90
14687;DHT22;7431;49.440;11.084;2023-03-12T22:35:54;8.00;99.90
14687;DHT22;7431;49.440;11.084;2023-03-12T22:38:20;8.00;99.90
14687;DHT22;7431;49.440;11.084;2023-03-12T22:40:46;8.00;99.90
14687;DHT22;7431;49.440;11.084;2023-03-12T22:43:12;8.00;99.90
14687;DHT22;7431;49.440;11.084;2023-03-12T22:45:38;8.00;99.90
14687;DHT22;7431;49.440;11.084;2023-03-12T22:48:04;8.00;99.90
14687;DHT22;7431;49.440;11.084;2023-03-12T22:50:30;8.00;99.90
14687;DHT22;7431;49.440;11.084;2023-03-12T22:52:55;8.00;99.90
14687;DHT22;7431;49.440;11.084;2023-03-12T22:55:21;8.00;99.90
14687;DHT22;7431;49.440;11.084;2023-03-12T22:57:47;8.00;99.90
14687;DHT22;7431;49.440;11.084;2023-03-12T23:00:14;8.00;99.90
14687;DHT22;7431;49.440;11.084;2023-03-12T23:02:40;8.00;99.90
14687;DHT22;7431;49.440;11.084;2023-03-12T23:05:07;8.00;99.90
14687;DHT22;7431;49.440;11.084;2023-03-12T23:07:33;8.00;99.90
14687;DHT22;7431;49.440;11.084;2023-03-12T23:09:59;8.10;99.90
14687;DHT22;7431;49.440;11.084;2023-03-12T23:12:24;8.10;99.90
14687;DHT22;7431;49.440;11.084;2023-03-12T23:14:50;8.10;99.90
14687;DHT22;7431;49.440;11.084;2023-03-12T23:17:16;8.10;99.90
14687;DHT22;7431;49.440;11.084;2023-03-12T23:19:42;8.20;99.90
14687;DHT22;7431;49.440;11.084;2023-03-12T23:22:08;8.20;99.90
14687;DHT22;7431;49.440;11.084;2023-03-12T23:24:34;8.20;99.90
14687;DHT22;7431;49.440;11.084;2023-03-12T23:26:59;8.10;99.90
14687;DHT22;7431;49.440;11.084;2023-03-12T23:29:25;8.30;99.90
14687;DHT22;7431;49.440;11.084;2023-03-12T23:31:51;8.20;99.90
14687;DHT22;7431;49.440;11.084;2023-03-12T23:34:17;8.10;99.90
14687;DHT22;7431;49.440;11.084;2023-03-12T23:36:45;8.10;99.90
14687;DHT22;7431;49.440;11.084;2023-03-12T23:39:11;8.10;99.90
14687;DHT22;7431;49.440;11.084;2023-03-12T23:41:37;8.10;99.90
14687;DHT22;7431;49.440;11.084;2023-03-12T23:44:03;8.10;99.90
14687;DHT22;7431;49.440;11.084;2023-03-12T23:46:28;8.10;99.90
14687;DHT22;7431;49.440;11.084;2023-03-12T23:48:57;8.00;99.90
14687;DHT22;7431;49.440;11.084;2023-03-12T23:51:27;8.00;99.90
14687;DHT22;7431;49.440;11.084;2023-03-12T23:54:00;7.00;99.90
14687;DHT22;7431;49.440;11.084;2023-03-12T23:56:37;7.90;99.90
14687;DHT22;7431;49.440;11.084;2023-03-12T23:59:05;7.80;99.90
